Time;durP1;ratioP1;P1;durP2;ratioP2;P2;SDS_P1;SDS_P2;PMS_P1;PMS_P2;Temp;Humidity;BMP_temperature;BMP_pressure;BME280_temperature;BME280_humidity;BME280_pressure;Samples;Min_cycle;Max_cycle;Signal;HPM_P1;HPM_P2
2022/10/20 00:02:27;;;;;;;7.93;3.60;;;12.00;99.90;;;11.97;100.00;101282.31;5224701;28;20060;-66
2022/10/20 00:04:59;;;;;;;10.18;3.30;;;12.00;99.90;;;12.01;100.00;101279.00;5225351;28;20045;-66
2022/10/20 00:07:31;;;;;;;7.97;4.28;;;12.10;99.90;;;12.04;100.00;101278.19;5224997;28;20398;-66
2022/10/20 00:10:04;;;;;;;8.98;3.92;;;12.10;99.90;;;12.05;100.00;101274.75;5224438;28;20049;-66
2022/10/20 00:12:38;;;;;;;7.57;3.42;;;12.10;99.90;;;12.04;100.00;101252.06;5223193;28;20049;-66
2022/10/20 00:15:11;;;;;;;8.15;3.63;;;12.10;99.90;;;11.97;100.00;101245.72;5225150;28;20501;-67
2022/10/20 00:17:45;;;;;;;7.85;3.55;;;12.10;99.90;;;11.94;100.00;101241.31;5224776;28;20045;-67
2022/10/20 00:20:17;;;;;;;8.13;3.63;;;12.00;99.90;;;11.93;100.00;101239.53;5224179;28;20067;-67
2022/10/20 00:22:49;;;;;;;8.02;3.33;;;12.00;99.90;;;11.91;100.00;101235.06;5224670;28;20498;-66
2022/10/20 00:25:22;;;;;;;6.25;2.83;;;12.00;99.90;;;11.93;100.00;101236.00;5224686;28;20057;-67
2022/10/20 00:27:56;;;;;;;7.68;3.00;;;12.00;99.90;;;11.95;100.00;101236.97;5224739;28;20047;-66
2022/10/20 00:30:28;;;;;;;5.80;2.92;;;12.00;99.90;;;11.94;100.00;101225.63;5224051;28;20045;-68
2022/10/20 00:33:01;;;;;;;5.85;3.13;;;12.00;99.90;;;11.95;100.00;101229.13;5224020;28;20033;-68
2022/10/20 00:35:37;;;;;;;5.68;2.72;;;11.90;99.90;;;11.95;100.00;101234.34;5224760;28;20037;-67
2022/10/20 00:38:10;;;;;;;5.57;2.42;;;11.90;99.90;;;11.95;100.00;101226.50;5224896;28;20505;-67
2022/10/20 00:40:45;;;;;;;4.30;2.28;;;11.90;99.90;;;11.95;100.00;101224.78;5224071;28;20055;-66
2022/10/20 00:43:20;;;;;;;4.25;2.33;;;11.90;99.90;;;11.92;100.00;101226.38;5224498;28;20041;-67
2022/10/20 00:45:56;;;;;;;7.30;2.80;;;11.90;99.90;;;11.87;100.00;101228.84;5224904;28;20041;-65
2022/10/20 00:48:30;;;;;;;4.85;2.70;;;11.80;99.90;;;11.86;100.00;101216.59;5224672;28;20045;-66
2022/10/20 00:51:04;;;;;;;6.63;3.20;;;11.80;99.90;;;11.83;100.00;101215.63;5223995;28;20045;-67
2022/10/20 00:53:36;;;;;;;5.47;2.78;;;11.80;99.90;;;11.83;100.00;101215.63;5224358;28;20051;-66
2022/10/20 00:56:09;;;;;;;6.15;2.92;;;11.80;99.90;;;11.80;100.00;101210.22;5224691;28;20044;-67
2022/10/20 00:58:43;;;;;;;7.63;3.63;;;11.80;99.90;;;11.77;100.00;101207.53;5224197;28;20047;-67
2022/10/20 01:01:17;;;;;;;6.97;3.60;;;11.80;99.90;;;11.71;100.00;101197.72;5221538;28;20048;-68
2022/10/20 01:03:51;;;;;;;8.27;3.33;;;11.70;99.90;;;11.66;100.00;101186.22;5224093;28;20069;-67
2022/10/20 01:06:23;;;;;;;7.40;3.08;;;11.70;99.90;;;11.67;100.00;101183.69;5224391;28;20041;-68
2022/10/20 01:08:56;;;;;;;5.78;3.17;;;11.70;99.90;;;11.67;100.00;101195.84;5224024;28;20060;-69
2022/10/20 01:11:39;;;;;;;8.00;3.40;;;11.70;99.90;;;11.72;100.00;101185.56;5223550;28;20045;-68
2022/10/20 01:14:36;;;;;;;5.93;3.13;;;11.70;99.90;;;11.73;100.00;101193.44;5224179;28;20049;-67
2022/10/20 01:17:22;;;;;;;6.22;3.00;;;11.80;99.90;;;11.76;100.00;101179.63;5239668;28;20051;-68
2022/10/20 01:20:37;;;;;;;7.50;3.45;;;11.80;99.90;;;11.76;100.00;101166.56;5240736;28;20056;-66
2022/10/20 01:24:30;;;;;;;9.63;3.80;;;11.90;99.90;;;11.80;100.00;101164.13;5227116;28;20068;-68
2022/10/20 01:27:35;;;;;;;6.53;3.20;;;11.80;99.90;;;11.82;100.00;101156.38;5179938;28;20050;-67
2022/10/20 01:30:16;;;;;;;7.60;3.28;;;11.90;99.90;;;11.83;100.00;101159.03;5237399;28;20057;-66
2022/10/20 01:32:55;;;;;;;;;;;11.90;99.90;;;11.88;100.00;101172.28;5224104;28;20404;-68
2022/10/20 01:35:38;;;;;;;6.50;3.22;;;11.90;99.90;;;11.90;100.00;101162.75;5224440;28;19934;-69
2022/10/20 01:38:22;;;;;;;6.50;2.80;;;11.90;99.90;;;11.94;100.00;101172.50;5223537;28;20056;-67
2022/10/20 01:41:02;;;;;;;7.30;3.08;;;12.00;99.90;;;11.97;100.00;101167.34;5223675;28;20120;-67
2022/10/20 01:43:38;;;;;;;7.30;3.22;;;12.00;99.90;;;11.99;100.00;101164.78;5225382;28;20052;-67
2022/10/20 01:46:12;;;;;;;7.22;3.30;;;12.00;99.90;;;11.97;100.00;101156.91;5227663;28;20052;-68
2022/10/20 01:48:46;;;;;;;8.70;3.25;;;12.00;99.90;;;11.97;100.00;101154.28;5227085;28;20044;-68
2022/10/20 01:51:18;;;;;;;7.80;3.78;;;12.00;99.90;;;11.95;100.00;101146.41;5227094;28;20052;-67
2022/10/20 01:53:50;;;;;;;9.95;4.03;;;12.00;99.90;;;11.93;100.00;101139.34;5227041;28;20041;-66
2022/10/20 01:56:31;;;;;;;6.22;3.42;;;12.00;99.90;;;11.89;100.00;101135.75;5227287;28;20044;-68
2022/10/20 01:59:34;;;;;;;5.60;3.35;;;12.00;99.90;;;11.90;100.00;101131.41;5244184;28;20148;-68
2022/10/20 02:02:31;;;;;;;7.47;3.40;;;12.00;99.90;;;11.90;100.00;101128.78;5232607;28;20051;-66
2022/10/20 02:05:19;;;;;;;7.57;3.47;;;11.90;99.90;;;11.89;100.00;101119.19;5227503;28;20041;-68
2022/10/20 02:07:54;;;;;;;6.60;3.08;;;11.90;99.90;;;11.90;100.00;101121.84;5227167;28;20080;-67
2022/10/20 02:10:36;;;;;;;6.47;3.10;;;12.00;99.90;;;11.92;100.00;101116.66;5226824;28;20053;-66
2022/10/20 02:13:11;;;;;;;6.55;3.00;;;12.00;99.90;;;11.90;100.00;101121.84;5226904;28;20051;-69
2022/10/20 02:15:46;;;;;;;;;;;12.00;99.90;;;11.90;100.00;101110.50;5227359;28;20045;-66
2022/10/20 02:18:25;;;;;;;8.73;3.60;;;11.90;99.90;;;11.90;100.00;101094.81;5226788;28;19932;-68
2022/10/20 02:21:01;;;;;;;7.65;3.92;;;12.00;99.90;;;11.90;100.00;101097.44;5226985;28;20051;-67
2022/10/20 02:23:39;;;;;;;8.63;3.90;;;12.00;99.90;;;11.88;100.00;101083.44;5226365;28;20049;-69
2022/10/20 02:26:15;;;;;;;6.63;3.40;;;12.00;99.90;;;11.91;100.00;101086.16;5226997;28;20072;-68
2022/10/20 02:28:54;;;;;;;5.75;3.03;;;12.00;99.90;;;11.92;100.00;101080.09;5226509;28;20051;-68
2022/10/20 02:31:28;;;;;;;7.45;3.53;;;12.00;99.90;;;11.94;100.00;101089.78;5226349;28;20041;-67
2022/10/20 02:34:00;;;;;;;8.25;3.30;;;12.00;99.90;;;11.94;100.00;101086.28;5226483;28;20565;-67
2022/10/20 02:36:40;;;;;;;8.23;4.15;;;12.00;99.90;;;11.94;100.00;101083.66;5226475;28;20409;-66
2022/10/20 02:39:12;;;;;;;9.55;3.40;;;12.00;99.90;;;11.93;100.00;101092.31;5226264;28;20064;-69
2022/10/20 02:41:44;;;;;;;6.07;3.20;;;12.00;99.90;;;11.95;100.00;101090.66;5226024;28;20055;-67
2022/10/20 02:44:16;;;;;;;18.45;3.88;;;12.00;99.90;;;11.96;100.00;101084.59;5226163;28;20040;-67
2022/10/20 02:46:50;;;;;;;6.75;3.38;;;12.00;99.90;;;11.99;100.00;101079.44;5226828;28;20116;-69
2022/10/20 02:49:24;;;;;;;7.53;3.90;;;12.00;99.90;;;11.98;100.00;101069.84;5225900;28;20405;-67
2022/10/20 02:51:56;;;;;;;6.75;3.10;;;12.10;99.90;;;12.02;100.00;101076.06;5226141;28;20037;-68
2022/10/20 02:54:28;;;;;;;5.97;3.85;;;12.10;99.90;;;12.00;100.00;101070.81;5225770;28;20417;-67
2022/10/20 02:57:00;;;;;;;8.93;3.40;;;12.10;99.90;;;12.00;100.00;101077.72;5226357;28;20056;-66
2022/10/20 02:59:33;;;;;;;9.10;3.35;;;12.00;99.90;;;11.96;100.00;101076.75;5244079;22;20047;-74
2022/10/20 03:02:06;;;;;;;6.55;3.08;;;12.00;99.90;;;11.93;100.00;101074.94;5238900;28;20122;-74
2022/10/20 03:04:38;;;;;;;9.73;3.65;;;12.00;99.90;;;11.93;100.00;101066.19;5218895;28;20041;-75
2022/10/20 03:07:13;;;;;;;7.38;3.75;;;12.00;99.90;;;11.88;100.00;101057.31;5225462;28;20060;-74
2022/10/20 03:09:45;;;;;;;6.85;3.20;;;12.00;99.90;;;11.89;100.00;101062.59;5226425;28;20048;-73
2022/10/20 03:12:18;;;;;;;6.20;3.15;;;11.90;99.90;;;11.90;100.00;101061.75;5226385;28;20045;-73
2022/10/20 03:14:50;;;;;;;7.13;3.28;;;12.00;99.90;;;11.89;100.00;101053.88;5226074;28;20049;-73
2022/10/20 03:17:24;;;;;;;5.47;3.40;;;11.90;99.90;;;11.86;100.00;101038.97;5226365;28;20045;-72
2022/10/20 03:19:56;;;;;;;8.05;4.00;;;11.90;99.90;;;11.83;100.00;101028.44;5226098;28;20124;-73
2022/10/20 03:22:28;;;;;;;7.88;3.80;;;11.90;99.90;;;11.83;100.00;101041.50;5208274;28;20531;-73
2022/10/20 03:25:00;;;;;;;9.27;4.32;;;11.90;99.90;;;11.84;100.00;101045.00;5208280;28;20055;-73
2022/10/20 03:27:32;;;;;;;10.98;5.57;;;11.90;99.90;;;11.84;100.00;101055.44;5225945;28;20401;-72
2022/10/20 03:30:06;;;;;;;8.57;4.32;;;11.90;99.90;;;11.88;100.00;101050.38;5225453;28;20037;-73
2022/10/20 03:32:41;;;;;;;9.18;4.53;;;12.00;99.90;;;11.90;100.00;101042.59;5224823;28;20040;-72
2022/10/20 03:35:14;;;;;;;9.45;4.85;;;12.00;99.90;;;11.91;100.00;101049.59;5225959;28;20489;-73
2022/10/20 03:37:47;;;;;;;10.68;5.05;;;12.00;99.90;;;11.93;100.00;101040.97;5208327;28;20498;-73
2022/10/20 03:40:19;;;;;;;10.52;5.85;;;12.00;99.90;;;11.98;100.00;101035.00;5225496;28;20477;-72
2022/10/20 03:42:51;;;;;;;9.80;4.93;;;12.00;99.90;;;12.00;100.00;101036.84;5225618;28;20048;-73
2022/10/20 03:45:23;;;;;;;14.52;4.20;;;12.00;99.90;;;12.00;100.00;101026.38;5224331;28;20137;-72
2022/10/20 03:47:57;;;;;;;9.77;3.78;;;12.10;99.90;;;12.00;100.00;101026.38;5225702;28;20051;-73
2022/10/20 03:50:29;;;;;;;8.23;4.72;;;12.00;99.90;;;12.05;100.00;101030.00;5226028;28;20518;-75
2022/10/20 03:53:01;;;;;;;11.18;5.05;;;12.10;99.90;;;12.05;100.00;101019.56;5223947;28;20048;-72
2022/10/20 03:55:34;;;;;;;10.80;4.97;;;12.10;99.90;;;12.07;100.00;101015.28;5224389;28;20060;-74
2022/10/20 03:58:06;;;;;;;14.18;7.80;;;12.10;99.90;;;12.08;100.00;101011.84;5225563;28;20455;-75
2022/10/20 04:00:38;;;;;;;7.68;3.85;;;12.10;99.90;;;12.07;100.00;101011.81;5225661;28;20131;-72
2022/10/20 04:03:12;;;;;;;11.00;4.70;;;12.10;99.90;;;12.06;100.00;101021.38;5225248;28;20044;-73
2022/10/20 04:05:44;;;;;;;9.90;4.80;;;12.10;99.90;;;12.12;100.00;101018.03;5225201;28;20051;-73
2022/10/20 04:08:16;;;;;;;10.13;5.05;;;12.20;99.90;;;12.08;100.00;101022.28;5224795;28;20041;-73
2022/10/20 04:10:48;;;;;;;8.50;4.32;;;12.20;99.90;;;12.08;100.00;101024.91;5224188;28;20044;-74
2022/10/20 04:13:21;;;;;;;10.90;4.05;;;12.10;99.90;;;12.09;100.00;101024.06;5224960;28;20045;-74
2022/10/20 04:15:53;;;;;;;8.35;3.75;;;12.10;99.90;;;12.06;100.00;101021.38;5207422;28;20049;-75
2022/10/20 04:18:27;;;;;;;7.30;3.58;;;12.20;99.90;;;12.07;100.00;101019.63;5225369;28;20048;-73
2022/10/20 04:20:59;;;;;;;9.13;4.03;;;12.10;99.90;;;12.06;100.00;100999.53;5225556;28;20493;-74
2022/10/20 04:23:31;;;;;;;8.20;3.47;;;12.10;99.90;;;12.09;100.00;100994.44;5224874;28;20045;-74
2022/10/20 04:26:09;;;;;;;6.25;3.17;;;12.20;99.90;;;12.10;100.00;100981.41;5225059;28;20084;-75
2022/10/20 04:28:42;;;;;;;7.25;3.70;;;12.20;99.90;;;12.07;100.00;100976.09;5207091;28;20055;-72
2022/10/20 04:31:15;;;;;;;6.68;3.60;;;12.20;99.90;;;12.08;100.00;100972.66;5207355;28;20056;-73
2022/10/20 04:33:49;;;;;;;6.65;3.55;;;12.20;99.90;;;12.10;100.00;100965.72;5224872;28;20045;-73
2022/10/20 04:36:21;;;;;;;7.85;4.10;;;12.10;99.90;;;12.10;100.00;100970.97;5224929;28;20037;-75
2022/10/20 04:38:53;;;;;;;6.15;3.42;;;12.20;99.90;;;12.12;100.00;100969.25;5225103;28;20056;-74
2022/10/20 04:41:25;;;;;;;6.90;3.53;;;12.20;99.90;;;12.13;100.00;100950.16;5224679;28;20056;-74
2022/10/20 04:43:57;;;;;;;7.15;3.10;;;12.20;99.90;;;12.14;100.00;100951.94;5206758;28;20044;-73
2022/10/20 04:46:29;;;;;;;9.90;3.97;;;12.20;99.90;;;12.12;100.00;100958.81;5223640;28;20418;-75
2022/10/20 04:49:04;;;;;;;8.45;3.55;;;12.20;99.90;;;12.16;100.00;100963.31;5225261;28;20076;-73
2022/10/20 04:51:36;;;;;;;6.53;3.17;;;12.20;99.90;;;12.14;100.00;100967.63;5224455;28;20075;-72
2022/10/20 04:54:08;;;;;;;6.93;3.25;;;12.20;99.90;;;12.15;100.00;100961.53;5224807;28;20040;-73
2022/10/20 04:56:41;;;;;;;4.82;2.88;;;12.20;99.90;;;12.18;100.00;100959.00;5224821;28;20120;-73
2022/10/20 04:59:13;;;;;;;8.20;3.10;;;12.20;99.90;;;12.19;100.00;100959.91;5224443;28;20517;-74
2022/10/20 05:01:46;;;;;;;5.57;3.25;;;12.20;99.90;;;12.20;100.00;100946.91;5223314;28;20124;-72
2022/10/20 05:04:20;;;;;;;6.22;3.10;;;12.30;99.90;;;12.20;100.00;100944.28;5224274;28;20512;-73
2022/10/20 05:06:52;;;;;;;4.65;2.70;;;12.30;99.90;;;12.20;100.00;100936.44;5224598;28;20118;-72
2022/10/20 05:09:24;;;;;;;5.43;2.80;;;12.20;99.90;;;12.21;100.00;100924.25;5225311;28;20339;-74
2022/10/20 05:11:58;;;;;;;6.47;3.38;;;12.30;99.90;;;12.19;100.00;100923.31;5224364;28;20049;-73
2022/10/20 05:14:30;;;;;;;5.85;3.47;;;12.30;99.90;;;12.16;100.00;100924.13;5224713;28;20124;-74
2022/10/20 05:17:02;;;;;;;7.05;3.05;;;12.20;99.90;;;12.16;100.00;100933.69;5223328;28;20077;-74
2022/10/20 05:19:36;;;;;;;8.43;3.42;;;12.20;99.90;;;12.18;100.00;100925.03;5228407;28;20041;-74
2022/10/20 05:22:09;;;;;;;6.25;3.30;;;12.20;99.90;;;12.18;100.00;100904.13;5226904;28;20045;-73
2022/10/20 05:24:41;;;;;;;7.03;3.20;;;12.20;99.90;;;12.19;100.00;100902.41;5210519;28;20290;-75
2022/10/20 05:27:13;;;;;;;8.30;3.80;;;12.30;99.90;;;12.19;100.00;100900.69;5211236;28;20087;-73
2022/10/20 05:29:45;;;;;;;6.18;3.35;;;12.20;99.90;;;12.20;100.00;100905.09;5229133;28;20063;-75
2022/10/20 05:32:17;;;;;;;7.22;3.83;;;12.30;99.90;;;12.19;100.00;100889.34;5228840;28;20044;-73
2022/10/20 05:34:51;;;;;;;6.80;3.20;;;12.30;99.90;;;12.19;100.00;100903.31;5227621;28;20044;-73
2022/10/20 05:37:23;;;;;;;6.40;3.45;;;12.20;99.90;;;12.18;100.00;100890.19;5226670;28;20045;-72
2022/10/20 05:39:56;;;;;;;7.35;3.30;;;12.20;99.90;;;12.17;100.00;100894.53;5227343;28;20131;-73
2022/10/20 05:42:28;;;;;;;6.30;3.40;;;12.20;99.90;;;12.15;100.00;100893.59;5227905;28;20540;-73
2022/10/20 05:45:00;;;;;;;6.65;3.63;;;12.20;99.90;;;12.16;100.00;100886.66;5228152;28;20045;-74
2022/10/20 05:47:33;;;;;;;9.00;3.80;;;12.20;99.90;;;12.14;100.00;100888.34;5227434;28;20041;-58
2022/10/20 05:50:08;;;;;;;8.50;3.60;;;12.20;99.90;;;12.16;100.00;100895.38;5227804;28;20045;-59
2022/10/20 05:52:40;;;;;;;6.63;3.55;;;12.20;99.90;;;12.14;100.00;100891.84;5217213;28;20694;-58
2022/10/20 05:55:13;;;;;;;7.18;3.40;;;12.20;99.90;;;12.13;100.00;100877.00;5207156;28;20064;-59
2022/10/20 05:57:45;;;;;;;7.35;3.17;;;12.20;99.90;;;12.13;100.00;100866.53;5207565;28;20508;-60
2022/10/20 06:00:28;;;;;;;6.13;3.47;;;12.20;99.90;;;12.12;100.00;100869.97;5207324;28;20045;-59
2022/10/20 06:03:01;;;;;;;8.48;3.72;;;12.20;99.90;;;12.13;100.00;100876.13;5207126;28;20045;-59
2022/10/20 06:05:34;;;;;;;8.43;3.80;;;12.20;99.90;;;12.17;100.00;100884.06;5225337;28;20404;-60
2022/10/20 06:08:06;;;;;;;7.63;3.50;;;12.20;99.90;;;12.14;100.00;100886.59;5219196;28;20045;-61
2022/10/20 06:10:38;;;;;;;6.93;3.33;;;12.20;99.90;;;12.12;100.00;100882.16;5207932;28;20056;-60
2022/10/20 06:13:11;;;;;;;9.25;4.63;;;12.20;99.90;;;12.10;100.00;100887.34;5206843;28;20387;-61
2022/10/20 06:15:46;;;;;;;7.38;3.65;;;12.20;99.90;;;12.10;100.00;100887.34;5191046;28;20052;-58
2022/10/20 06:18:18;;;;;;;8.73;3.90;;;12.20;99.90;;;12.09;100.00;100895.13;5211802;28;20049;-58
2022/10/20 06:21:01;;;;;;;6.50;3.25;;;12.20;99.90;;;12.08;100.00;100904.72;5215951;28;20037;-59
2022/10/20 06:23:34;;;;;;;6.65;3.50;;;12.10;99.90;;;12.10;100.00;100916.09;5225719;28;20048;-58
2022/10/20 06:26:09;;;;;;;10.95;4.75;;;12.20;99.90;;;12.14;100.00;100912.75;5225970;28;20508;-58
2022/10/20 06:28:41;;;;;;;9.02;3.90;;;12.20;99.90;;;12.12;100.00;100911.78;5227242;28;20540;-60
2022/10/20 06:31:16;;;;;;;8.40;3.67;;;12.20;99.90;;;12.15;100.00;100896.22;5226305;28;20053;-58
2022/10/20 06:33:48;;;;;;;6.80;3.50;;;12.20;99.90;;;12.14;100.00;100910.13;5227382;28;20045;-59
2022/10/20 06:36:23;;;;;;;8.77;4.20;;;12.20;99.90;;;12.13;100.00;100907.47;5227099;28;20045;-58
2022/10/20 06:38:57;;;;;;;6.60;3.33;;;12.20;99.90;;;12.14;100.00;100890.94;5227119;28;20047;-59
2022/10/20 06:41:29;;;;;;;10.40;4.20;;;12.20;99.90;;;12.14;100.00;100891.84;5227214;28;20068;-58
2022/10/20 06:44:01;;;;;;;8.93;4.05;;;12.20;99.90;;;12.12;100.00;100890.88;5227123;28;20052;-58
2022/10/20 06:46:36;;;;;;;8.68;3.97;;;12.20;99.90;;;12.17;100.00;100893.63;5227243;28;20052;-58
2022/10/20 06:49:10;;;;;;;9.38;3.78;;;12.20;99.90;;;12.17;100.00;100889.28;5226960;28;20041;-60
2022/10/20 06:51:43;;;;;;;9.30;4.40;;;12.20;99.90;;;12.18;100.00;100891.06;5226739;28;20060;-59
2022/10/20 06:54:16;;;;;;;9.20;4.43;;;12.20;99.90;;;12.21;100.00;100891.16;5206110;28;20045;-57
2022/10/20 06:56:48;;;;;;;7.80;4.28;;;12.30;99.90;;;12.19;100.00;100881.50;5206282;28;20041;-59
2022/10/20 06:59:20;;;;;;;8.20;4.15;;;12.20;99.90;;;12.20;100.00;100884.19;5222566;28;20482;-57
2022/10/20 07:01:52;;;;;;;10.65;4.18;;;12.20;99.90;;;12.22;100.00;100892.94;5226667;28;20057;-58
2022/10/20 07:04:24;;;;;;;9.27;4.93;;;12.30;99.90;;;12.28;100.00;100901.81;5226577;28;20406;-58
2022/10/20 07:06:58;;;;;;;8.50;3.97;;;12.30;99.90;;;12.29;100.00;100896.63;5213297;28;20073;-59
2022/10/20 07:09:30;;;;;;;11.48;4.07;;;12.30;99.90;;;12.31;100.00;100901.88;5205891;28;20037;-60
2022/10/20 07:12:02;;;;;;;7.78;4.38;;;12.30;99.90;;;12.32;100.00;100906.25;5206125;28;20446;-59
2022/10/20 07:14:36;;;;;;;6.93;3.53;;;12.30;99.90;;;12.35;100.00;100904.63;5205776;28;20045;-58
2022/10/20 07:17:08;;;;;;;6.93;3.92;;;12.40;99.90;;;12.35;100.00;100919.44;5197187;28;20083;-58
2022/10/20 07:19:40;;;;;;;8.43;4.00;;;12.40;99.90;;;12.37;100.00;100930.81;5195068;28;20053;-58
2022/10/20 07:22:13;;;;;;;10.35;3.75;;;12.40;99.90;;;12.38;100.00;100929.97;5197762;28;20064;-59
2022/10/20 07:24:45;;;;;;;9.57;4.18;;;12.40;99.90;;;12.40;100.00;100915.25;5221686;28;20433;-58
2022/10/20 07:27:18;;;;;;;7.57;3.78;;;12.40;99.90;;;12.41;100.00;100922.25;5217061;28;20048;-57
2022/10/20 07:29:50;;;;;;;10.00;4.15;;;12.40;99.90;;;12.38;100.00;100901.22;5213567;28;20056;-58
2022/10/20 07:32:22;;;;;;;10.68;4.20;;;12.40;99.90;;;12.39;100.00;100889.94;5200750;28;20459;-58
2022/10/20 07:34:54;;;;;;;9.35;4.53;;;12.40;99.90;;;12.41;100.00;100883.03;5164599;28;20056;-58
2022/10/20 07:37:28;;;;;;;8.00;4.60;;;12.40;99.90;;;12.43;100.00;100873.47;5203207;28;20045;-58
2022/10/20 07:40:00;;;;;;;11.23;4.10;;;12.50;99.90;;;12.46;100.00;100876.22;5205743;28;20045;-59
2022/10/20 07:42:32;;;;;;;7.97;3.80;;;12.50;99.90;;;12.47;100.00;100888.44;5215271;28;20052;-59
2022/10/20 07:45:05;;;;;;;8.63;3.88;;;12.50;99.90;;;12.59;100.00;100900.97;5225894;28;20037;-60
2022/10/20 07:47:37;;;;;;;7.75;3.70;;;12.60;99.90;;;12.59;100.00;100901.84;5223413;28;20056;-58
2022/10/20 07:50:11;;;;;;;6.95;3.90;;;12.60;99.90;;;12.61;100.00;100894.94;5220563;28;20052;-58
2022/10/20 07:52:45;;;;;;;9.50;4.13;;;12.60;99.90;;;12.65;100.00;100894.19;5225513;28;20052;-57
2022/10/20 07:55:17;;;;;;;7.60;3.97;;;12.70;99.90;;;12.73;100.00;100903.13;5226097;28;20405;-58
2022/10/20 07:57:49;;;;;;;8.35;4.15;;;12.70;99.90;;;12.74;100.00;100898.78;5225730;28;20053;-59
2022/10/20 08:00:21;;;;;;;7.05;3.47;;;12.70;99.90;;;12.73;100.00;100903.13;5216916;28;20061;-58
2022/10/20 08:02:53;;;;;;;7.18;4.10;;;12.80;99.90;;;12.74;100.00;100893.53;5225894;28;20494;-58
2022/10/20 08:05:28;;;;;;;9.43;4.68;;;12.80;99.90;;;12.77;100.00;100899.72;5225446;28;20382;-58
2022/10/20 08:08:01;;;;;;;8.07;3.90;;;12.80;99.90;;;12.82;100.00;100901.59;5225518;28;20045;-58
2022/10/20 08:10:33;;;;;;;9.35;4.38;;;12.80;99.90;;;12.84;100.00;100899.91;5225662;28;20049;-58
2022/10/20 08:13:06;;;;;;;9.25;4.20;;;12.80;99.90;;;12.84;100.00;100892.03;5225486;28;20050;-58
2022/10/20 08:15:38;;;;;;;7.35;3.55;;;12.80;99.90;;;12.83;100.00;100883.31;5225584;28;20048;-59
2022/10/20 08:18:10;;;;;;;10.95;4.68;;;12.80;99.90;;;12.86;100.00;100882.53;5225333;28;20076;-59
2022/10/20 08:20:43;;;;;;;7.65;3.55;;;12.80;99.90;;;12.83;100.00;100867.63;5225072;28;20064;-57
2022/10/20 08:23:17;;;;;;;6.90;3.90;;;12.80;99.90;;;12.82;100.00;100878.06;5225499;28;20037;-59
2022/10/20 08:25:57;;;;;;;10.55;4.90;;;12.80;99.90;;;12.86;100.00;100866.84;5225231;28;20444;-58
2022/10/20 08:28:29;;;;;;;8.75;4.40;;;12.90;99.90;;;12.93;100.00;100864.41;5225038;28;20049;-58
2022/10/20 08:31:02;;;;;;;8.25;4.30;;;12.90;99.90;;;12.98;100.00;100869.78;5225112;28;20045;-58
2022/10/20 08:33:35;;;;;;;8.15;4.20;;;12.90;99.90;;;12.98;100.00;100862.81;5225125;28;20049;-58
2022/10/20 08:36:11;;;;;;;10.80;5.47;;;13.00;99.90;;;13.01;100.00;100878.56;5225247;28;20040;-57
2022/10/20 08:38:44;;;;;;;10.73;4.30;;;13.00;99.90;;;13.03;100.00;100876.88;5225174;28;20049;-58
2022/10/20 08:41:20;;;;;;;7.57;4.03;;;13.00;99.90;;;13.02;100.00;100887.31;5225024;28;20048;-58
2022/10/20 08:43:55;;;;;;;8.20;3.83;;;13.00;99.90;;;13.06;100.00;100868.25;5225105;28;20044;-58
2022/10/20 08:46:32;;;;;;;9.90;4.50;;;13.00;99.90;;;13.11;100.00;100876.22;5224927;28;20048;-58
2022/10/20 08:49:10;;;;;;;7.60;3.70;;;13.00;99.90;;;13.10;100.00;100880.53;5225127;28;20052;-58
2022/10/20 08:51:42;;;;;;;9.80;4.55;;;13.10;99.90;;;13.11;100.00;100884.06;5222908;28;20055;-61
2022/10/20 08:54:17;;;;;;;9.50;4.60;;;13.10;99.90;;;13.09;100.00;100870.91;5227225;28;20493;-58
2022/10/20 08:56:50;;;;;;;9.00;4.13;;;13.00;99.90;;;13.06;100.00;100869.97;5228680;28;20049;-59
2022/10/20 09:02:16;;;;;;;8.45;4.40;;;13.00;99.90;;;13.06;100.00;100870.84;5231282;28;20088;-55
2022/10/20 09:04:51;;;;;;;8.27;3.92;;;13.00;99.90;;;13.07;100.00;100849.06;5211231;28;20052;-57
2022/10/20 09:07:29;;;;;;;8.38;4.60;;;13.10;99.90;;;13.07;100.00;100848.19;5228207;28;20489;-56
2022/10/20 09:10:18;;;;;;;8.07;4.43;;;13.10;99.90;;;13.07;100.00;100867.38;5228126;28;20056;-57
2022/10/20 09:12:51;;;;;;;7.72;4.03;;;13.00;99.90;;;13.08;100.00;100857.81;5228286;28;20116;-55
2022/10/20 09:15:26;;;;;;;9.30;4.00;;;13.10;99.90;;;13.10;100.00;100850.88;5228050;28;20068;-56
2022/10/20 09:18:03;;;;;;;11.55;5.20;;;13.10;99.90;;;13.10;100.00;100846.50;5227979;28;20726;-57
2022/10/20 09:20:43;;;;;;;8.32;4.50;;;13.10;99.90;;;13.12;100.00;100844.84;5227591;28;20044;-56
2022/10/20 09:23:16;;;;;;;9.30;4.47;;;13.10;99.90;;;13.09;100.00;100849.97;5228221;28;20583;-56
2022/10/20 09:25:52;;;;;;;8.40;4.15;;;13.10;99.90;;;13.13;100.00;100861.44;5227660;28;20047;-55
2022/10/20 09:28:27;;;;;;;8.38;4.28;;;13.10;99.90;;;13.16;100.00;100862.38;5228291;28;20095;-56
2022/10/20 09:30:59;;;;;;;13.15;4.50;;;13.10;99.90;;;13.18;100.00;100850.22;5227564;28;20048;-56
2022/10/20 09:33:34;;;;;;;6.95;4.00;;;13.10;99.90;;;13.20;100.00;100845.94;5227834;28;20053;-56
2022/10/20 09:36:14;;;;;;;;;;;13.20;99.90;;;13.19;100.00;100846.75;5227974;28;20123;-55
2022/10/20 09:38:50;;;;;;;8.90;4.28;;;13.20;99.90;;;13.22;100.00;100857.34;5227685;28;19947;-56
2022/10/20 09:41:26;;;;;;;9.05;4.28;;;13.20;99.90;;;13.27;100.00;100866.19;5227627;28;20045;-57
2022/10/20 09:44:01;;;;;;;10.75;4.90;;;13.20;99.90;;;13.33;100.00;100869.81;5227743;28;20045;-56
2022/10/20 09:46:44;;;;;;;9.93;3.63;;;13.30;99.90;;;13.35;100.00;100865.50;5227483;28;20520;-56
2022/10/20 09:49:25;;;;;;;8.88;3.90;;;13.30;99.90;;;13.38;100.00;100868.19;5227633;28;20543;-55
2022/10/20 09:52:00;;;;;;;9.52;4.68;;;13.30;99.90;;;13.40;100.00;100863.88;5227413;28;20057;-55
2022/10/20 09:54:32;;;;;;;13.88;5.55;;;13.40;99.90;;;13.42;100.00;100870.91;5209276;28;20040;-58
2022/10/20 09:57:08;;;;;;;9.70;4.63;;;13.40;99.90;;;13.46;100.00;100867.53;5209370;28;20509;-56
2022/10/20 09:59:44;;;;;;;17.90;5.13;;;13.40;99.90;;;13.50;100.00;100878.97;5226898;28;20048;-56
2022/10/20 10:02:30;;;;;;;10.95;5.00;;;13.40;99.90;;;13.51;100.00;100871.16;5211074;28;20048;-55
2022/10/20 10:05:19;;;;;;;10.13;4.88;;;13.50;99.90;;;13.55;100.00;100885.19;5206493;28;20116;-57
2022/10/20 10:08:00;;;;;;;10.32;5.00;;;13.50;99.90;;;13.56;100.00;100879.09;5206266;28;20041;-56
2022/10/20 10:10:32;;;;;;;12.30;4.78;;;13.50;99.90;;;13.56;100.00;100881.72;5206435;28;20041;-55
2022/10/20 10:13:20;;;;;;;9.75;5.10;;;13.50;99.90;;;13.56;100.00;100884.34;5206241;28;20045;-57
2022/10/20 10:16:02;;;;;;;8.70;4.70;;;13.50;99.90;;;13.60;100.00;100885.31;5206341;28;20486;-56
2022/10/20 10:18:36;;;;;;;9.23;4.90;;;13.50;99.90;;;13.60;100.00;100886.19;5206397;28;20498;-56
2022/10/20 10:21:10;;;;;;;14.65;6.72;;;13.60;99.90;;;13.59;100.00;100879.19;5212018;28;20187;-57
2022/10/20 10:23:52;;;;;;;13.00;5.60;;;13.60;99.90;;;13.58;100.00;100882.66;5227088;28;20052;-55
2022/10/20 10:26:46;;;;;;;9.50;5.18;;;13.50;99.90;;;13.53;100.00;100879.03;5228413;28;20045;-55
2022/10/20 10:29:28;;;;;;;10.32;4.85;;;13.50;99.90;;;13.52;100.00;100866.81;5227689;28;20049;-55
2022/10/20 10:32:02;;;;;;;9.65;4.68;;;13.50;99.90;;;13.49;100.00;100862.34;5226928;28;20128;-55
2022/10/20 10:34:58;;;;;;;8.23;4.18;;;13.50;99.90;;;13.50;100.00;100852.78;5227011;28;20519;-56
2022/10/20 10:37:32;;;;;;;12.30;5.53;;;13.50;99.90;;;13.52;100.00;100857.22;5227323;28;20048;-55
2022/10/20 10:40:15;;;;;;;11.27;5.47;;;13.50;99.90;;;13.53;100.00;100837.13;5227044;28;20045;-56
2022/10/20 10:43:21;;;;;;;8.30;4.60;;;13.50;99.90;;;13.57;100.00;100850.34;5226730;28;20528;-55